createdAt,value
2018-03-24T00:01:55.733Z,2.40
2018-03-24T00:04:23.780Z,2.40
2018-03-24T00:06:52.626Z,2.40
2018-03-24T00:09:20.693Z,2.30
2018-03-24T00:11:48.779Z,2.50
2018-03-24T00:14:16.841Z,2.50
2018-03-24T00:16:45.677Z,2.50
2018-03-24T00:19:13.749Z,2.50
2018-03-24T00:21:41.848Z,2.60
2018-03-24T00:24:09.961Z,2.60
2018-03-24T00:26:38.028Z,2.70
2018-03-24T00:29:06.085Z,2.70
2018-03-24T00:31:38.162Z,2.70
2018-03-24T00:34:06.371Z,2.70
2018-03-24T00:36:34.432Z,2.70
2018-03-24T00:39:02.524Z,2.70
2018-03-24T00:41:30.595Z,2.80
2018-03-24T00:43:58.663Z,2.80
2018-03-24T00:46:27.505Z,2.70
2018-03-24T00:48:55.568Z,2.70
2018-03-24T00:51:24.218Z,2.70
2018-03-24T00:53:52.283Z,2.60
2018-03-24T00:56:20.344Z,2.70
2018-03-24T00:58:48.438Z,2.80
2018-03-24T01:01:16.628Z,2.80
2018-03-24T01:03:44.706Z,2.80
2018-03-24T01:06:12.814Z,2.70
2018-03-24T01:08:40.879Z,2.80
2018-03-24T01:11:09.957Z,2.80
2018-03-24T01:13:38.078Z,2.70
2018-03-24T01:16:06.222Z,2.80
2018-03-24T01:18:35.148Z,2.80
2018-03-24T01:21:03.208Z,2.80
2018-03-24T01:23:31.300Z,2.70
2018-03-24T01:25:59.378Z,2.70
2018-03-24T01:28:27.443Z,2.80
2018-03-24T01:30:55.504Z,2.90
2018-03-24T01:33:23.562Z,2.90
2018-03-24T01:35:51.666Z,3.10
2018-03-24T01:38:19.768Z,3.20
2018-03-24T01:40:48.600Z,3.30
2018-03-24T01:43:16.683Z,3.30
2018-03-24T01:45:44.740Z,3.40
2018-03-24T01:48:12.828Z,3.40
2018-03-24T01:50:41.710Z,3.60
2018-03-24T01:53:09.786Z,3.60
2018-03-24T01:55:37.869Z,3.60
2018-03-24T01:58:05.934Z,3.60
2018-03-24T02:00:33.979Z,3.60
2018-03-24T02:03:02.044Z,3.60
2018-03-24T02:05:30.899Z,3.60
2018-03-24T02:07:59.728Z,3.70
2018-03-24T02:10:27.793Z,3.70
2018-03-24T02:12:56.753Z,3.60
2018-03-24T02:15:24.866Z,3.50
2018-03-24T02:17:52.937Z,3.50
2018-03-24T02:20:21.224Z,3.50
2018-03-24T02:22:49.313Z,3.50
2018-03-24T02:25:18.170Z,3.40
2018-03-24T02:27:46.792Z,3.30
2018-03-24T02:30:14.848Z,3.30
2018-03-24T02:32:42.926Z,3.20
2018-03-24T02:35:11.024Z,3.20
2018-03-24T02:37:39.079Z,3.10
2018-03-24T02:40:07.173Z,3.10
2018-03-24T02:42:35.251Z,3.10
2018-03-24T02:45:03.450Z,3.20
2018-03-24T02:47:31.514Z,3.30
2018-03-24T02:50:00.505Z,3.50
2018-03-24T02:52:28.565Z,3.60
2018-03-24T02:54:56.633Z,3.70
2018-03-24T02:57:24.718Z,3.80
2018-03-24T02:59:52.778Z,3.90
2018-03-24T03:02:21.630Z,4.00
2018-03-24T03:04:49.678Z,4.00
2018-03-24T03:07:18.516Z,4.20
2018-03-24T03:09:46.575Z,4.20
2018-03-24T03:12:14.689Z,4.20
2018-03-24T03:14:42.770Z,4.20
2018-03-24T03:17:10.892Z,4.20
2018-03-24T03:19:38.946Z,4.20
2018-03-24T03:22:07.048Z,4.20
2018-03-24T03:24:35.128Z,4.20
2018-03-24T03:27:03.194Z,4.30
2018-03-24T03:29:31.340Z,4.30
2018-03-24T03:32:00.192Z,4.30
2018-03-24T03:34:28.305Z,4.20
2018-03-24T03:36:56.357Z,4.30
2018-03-24T03:39:24.429Z,4.30
2018-03-24T03:41:52.500Z,4.30
2018-03-24T03:44:20.582Z,4.20
2018-03-24T03:46:48.651Z,4.20
2018-03-24T03:49:16.741Z,4.20
2018-03-24T03:51:45.576Z,4.20
2018-03-24T03:54:13.649Z,4.20
2018-03-24T03:56:41.845Z,4.10
2018-03-24T03:59:09.954Z,4.10
2018-03-24T04:01:38.017Z,4.10
2018-03-24T04:04:06.095Z,4.10
2018-03-24T04:06:34.484Z,4.10
2018-03-24T04:09:02.561Z,4.10
2018-03-24T04:11:30.616Z,4.00
2018-03-24T04:13:58.694Z,4.10
2018-03-24T04:16:26.850Z,4.00
2018-03-24T04:18:54.895Z,4.00
2018-03-24T04:21:22.952Z,4.00
2018-03-24T04:23:51.033Z,4.00
2018-03-24T04:26:19.087Z,4.00
2018-03-24T04:28:47.924Z,3.90
2018-03-24T04:31:15.993Z,3.90
2018-03-24T04:33:44.052Z,3.90
2018-03-24T04:36:12.888Z,3.90
2018-03-24T04:38:40.963Z,3.90
2018-03-24T04:41:09.023Z,3.90
2018-03-24T04:43:37.870Z,4.00
2018-03-24T04:46:05.925Z,3.90
2018-03-24T04:48:33.998Z,4.00
2018-03-24T04:51:02.824Z,3.90
2018-03-24T04:53:31.053Z,3.90
2018-03-24T04:55:59.107Z,3.90
2018-03-24T04:58:27.176Z,3.90
2018-03-24T05:00:55.250Z,3.80
2018-03-24T05:03:23.313Z,3.80
2018-03-24T05:05:52.153Z,3.80
2018-03-24T05:08:20.228Z,3.70
2018-03-24T05:10:48.308Z,3.80
2018-03-24T05:13:16.434Z,3.80
2018-03-24T05:15:44.518Z,3.70
2018-03-24T05:18:12.569Z,3.60
2018-03-24T05:20:40.661Z,3.70
2018-03-24T05:23:08.719Z,3.70
2018-03-24T05:25:36.793Z,3.70
2018-03-24T05:28:05.696Z,3.60
2018-03-24T05:30:34.521Z,3.60
2018-03-24T05:33:02.582Z,3.60
2018-03-24T05:35:31.435Z,3.60
2018-03-24T05:37:59.504Z,3.60
2018-03-24T05:40:27.588Z,3.60
2018-03-24T05:42:55.648Z,3.60
2018-03-24T05:45:23.731Z,3.60
2018-03-24T05:47:51.806Z,3.50
2018-03-24T05:50:19.906Z,3.60
2018-03-24T05:52:47.981Z,3.50
2018-03-24T05:55:16.063Z,3.60
2018-03-24T05:57:44.112Z,3.60
2018-03-24T06:00:12.195Z,3.50
2018-03-24T06:02:40.249Z,3.50
2018-03-24T06:05:08.325Z,3.60
2018-03-24T06:07:36.422Z,3.60
2018-03-24T06:10:04.465Z,3.60
2018-03-24T06:12:32.541Z,3.50
2018-03-24T06:15:00.608Z,3.50
2018-03-24T06:17:29.444Z,3.50
2018-03-24T06:19:57.516Z,3.50
2018-03-24T06:22:25.568Z,3.60
2018-03-24T06:24:54.614Z,3.60
2018-03-24T06:27:22.692Z,3.60
2018-03-24T06:29:50.758Z,3.60
2018-03-24T06:32:19.600Z,3.60
2018-03-24T06:34:47.687Z,3.60
2018-03-24T06:37:16.570Z,3.70
2018-03-24T06:39:44.774Z,3.70
2018-03-24T06:42:12.838Z,3.70
2018-03-24T06:44:40.978Z,3.70
2018-03-24T06:47:08.986Z,3.80
2018-03-24T06:49:37.037Z,3.90
2018-03-24T06:52:05.093Z,3.90
2018-03-24T06:54:33.258Z,4.00
2018-03-24T06:57:01.326Z,4.00
2018-03-24T06:59:29.388Z,4.00
2018-03-24T07:01:58.216Z,4.10
2018-03-24T07:04:26.292Z,4.10
2018-03-24T07:06:54.378Z,4.20
2018-03-24T07:09:22.428Z,4.20
2018-03-24T07:11:50.496Z,4.10
2018-03-24T07:14:18.705Z,4.10
2018-03-24T07:16:54.341Z,4.20
2018-03-24T07:21:56.661Z,4.30
2018-03-24T07:24:27.459Z,4.30
2018-03-24T07:26:56.632Z,4.30
2018-03-24T07:29:24.772Z,4.30
2018-03-24T07:31:52.983Z,4.30
2018-03-24T07:34:21.043Z,4.30
2018-03-24T07:36:49.118Z,4.40
2018-03-24T07:39:17.172Z,4.50
2018-03-24T07:41:45.996Z,4.70
2018-03-24T07:44:14.078Z,4.70
2018-03-24T07:46:42.210Z,4.90
2018-03-24T07:49:10.282Z,5.00
2018-03-24T07:51:38.341Z,5.10
2018-03-24T07:54:06.428Z,5.20
2018-03-24T07:56:34.504Z,5.20
2018-03-24T07:59:02.583Z,5.30
2018-03-24T08:01:30.656Z,5.30
2018-03-24T08:03:58.704Z,5.50
2018-03-24T08:06:26.786Z,5.60
2018-03-24T08:08:54.862Z,5.70
2018-03-24T08:11:22.942Z,5.80
2018-03-24T08:13:51.052Z,6.00
2018-03-24T08:16:19.102Z,6.00
2018-03-24T08:18:47.169Z,6.10
2018-03-24T08:21:15.244Z,6.20
2018-03-24T08:23:43.317Z,6.20
2018-03-24T08:26:11.385Z,6.40
2018-03-24T08:28:39.552Z,6.40
2018-03-24T08:31:07.620Z,6.50
2018-03-24T08:33:35.672Z,6.50
2018-03-24T08:36:03.732Z,6.70
2018-03-24T08:38:31.806Z,6.60
2018-03-24T08:40:59.870Z,6.60
2018-03-24T08:43:29.248Z,6.80
2018-03-24T08:45:57.316Z,6.80
2018-03-24T08:48:25.390Z,6.80
2018-03-24T08:50:53.452Z,7.00
2018-03-24T08:53:21.561Z,7.00
2018-03-24T08:55:53.576Z,7.00
2018-03-24T08:58:21.633Z,7.20
2018-03-24T09:00:49.702Z,7.30
2018-03-24T09:03:17.910Z,7.40
2018-03-24T09:05:45.985Z,7.50
2018-03-24T09:08:14.057Z,7.60
2018-03-24T09:10:42.127Z,7.60
2018-03-24T09:13:10.196Z,7.70
2018-03-24T09:15:39.022Z,7.80
2018-03-24T09:18:07.096Z,7.80
2018-03-24T09:20:41.659Z,8.00
2018-03-24T09:23:09.729Z,8.10
2018-03-24T09:25:37.789Z,8.00
2018-03-24T09:28:05.871Z,8.10
2018-03-24T09:30:33.953Z,8.00
2018-03-24T09:33:01.989Z,8.00
2018-03-24T09:35:30.067Z,8.10
2018-03-24T09:37:58.170Z,8.40
2018-03-24T09:40:26.238Z,9.10
2018-03-24T09:42:54.309Z,11.60
2018-03-24T09:45:22.377Z,14.70
2018-03-24T09:47:50.448Z,17.40
2018-03-24T09:50:18.504Z,19.90
2018-03-24T09:52:47.419Z,23.30
2018-03-24T09:55:15.413Z,23.20
2018-03-24T09:57:43.490Z,24.70
2018-03-24T10:00:11.571Z,25.00
2018-03-24T10:02:39.654Z,25.30
2018-03-24T10:05:07.700Z,25.20
2018-03-24T10:07:35.770Z,25.00
2018-03-24T10:10:04.776Z,24.60
2018-03-24T10:12:33.601Z,23.60
2018-03-24T10:15:02.433Z,22.90
2018-03-24T10:17:30.508Z,22.90
2018-03-24T10:19:58.564Z,22.40
2018-03-24T10:25:43.100Z,20.80
2018-03-24T10:28:11.170Z,21.20
2018-03-24T10:30:40.007Z,21.50
2018-03-24T10:33:08.077Z,21.40
2018-03-24T10:35:36.149Z,21.80
2018-03-24T10:38:04.229Z,22.10
2018-03-24T10:40:32.290Z,22.00
2018-03-24T10:43:06.139Z,21.40
2018-03-24T10:45:34.278Z,21.60
2018-03-24T10:48:02.612Z,22.30
2018-03-24T10:50:31.490Z,23.20
2018-03-24T10:52:59.493Z,23.20
2018-03-24T10:55:27.552Z,23.40
2018-03-24T10:57:55.601Z,23.70
2018-03-24T11:00:29.640Z,23.90
2018-03-24T11:02:57.692Z,23.50
2018-03-24T11:05:25.779Z,22.90
2018-03-24T11:07:54.062Z,23.30
2018-03-24T11:10:22.875Z,23.60
2018-03-24T11:12:50.942Z,23.70
2018-03-24T11:15:20.243Z,24.00
2018-03-24T11:17:48.301Z,24.60
2018-03-24T11:20:16.370Z,24.90
2018-03-24T11:22:45.414Z,25.50
2018-03-24T11:25:13.497Z,25.70
2018-03-24T11:27:41.549Z,25.50
2018-03-24T11:30:09.620Z,26.20
2018-03-24T11:32:37.682Z,26.50
2018-03-24T11:35:05.749Z,26.10
2018-03-24T11:37:33.817Z,26.50
2018-03-24T11:40:01.893Z,26.80
2018-03-24T11:42:29.958Z,27.00
2018-03-24T11:44:59.274Z,26.50
2018-03-24T11:47:28.216Z,26.40
2018-03-24T11:49:56.418Z,26.20
2018-03-24T11:52:24.494Z,26.50
2018-03-24T11:54:52.585Z,26.20
2018-03-24T11:57:20.655Z,25.60
2018-03-24T11:59:48.738Z,24.60
2018-03-24T12:02:16.804Z,24.50
2018-03-24T12:04:45.087Z,25.00
2018-03-24T12:07:13.149Z,25.20
2018-03-24T12:09:41.230Z,24.70
2018-03-24T12:12:09.313Z,24.10
2018-03-24T12:14:37.882Z,24.10
2018-03-24T12:17:06.071Z,24.40
2018-03-24T12:19:35.331Z,24.00
2018-03-24T12:22:03.415Z,24.30
2018-03-24T12:24:31.518Z,24.30
2018-03-24T12:26:59.590Z,24.30
2018-03-24T12:29:27.686Z,24.20
2018-03-24T12:31:55.742Z,24.00
2018-03-24T12:34:24.561Z,23.80
2018-03-24T12:36:52.651Z,23.70
2018-03-24T12:39:20.748Z,23.70
2018-03-24T12:41:48.803Z,23.30
2018-03-24T12:44:17.716Z,23.40
2018-03-24T12:46:45.796Z,23.40
2018-03-24T12:49:14.617Z,23.00
2018-03-24T12:51:42.667Z,23.00
2018-03-24T12:54:10.734Z,23.00
2018-03-24T12:56:39.581Z,22.60
2018-03-24T12:59:07.651Z,22.50
2018-03-24T13:01:35.725Z,22.60
2018-03-24T13:04:03.854Z,22.20
2018-03-24T13:06:31.934Z,22.00
2018-03-24T13:09:00.014Z,22.00
2018-03-24T13:11:28.085Z,21.80
2018-03-24T13:13:56.214Z,22.00
2018-03-24T13:16:24.264Z,21.30
2018-03-24T13:18:52.343Z,20.10
2018-03-24T13:21:20.413Z,20.40
2018-03-24T13:23:48.471Z,20.40
2018-03-24T13:26:16.555Z,20.70
2018-03-24T13:28:44.624Z,19.70
2018-03-24T13:31:13.708Z,19.30
2018-03-24T13:33:41.786Z,19.30
2018-03-24T13:36:09.848Z,19.40
2018-03-24T13:38:37.993Z,19.40
2018-03-24T13:41:06.075Z,19.20
2018-03-24T13:43:34.930Z,19.50
2018-03-24T13:46:03.033Z,19.40
2018-03-24T13:48:31.113Z,19.50
2018-03-24T13:50:59.205Z,19.40
2018-03-24T13:53:27.287Z,19.30
2018-03-24T13:55:55.360Z,19.20
2018-03-24T13:58:23.433Z,19.10
2018-03-24T14:00:51.521Z,18.40
2018-03-24T14:03:19.577Z,17.70
2018-03-24T14:05:47.654Z,17.60
2018-03-24T14:08:15.742Z,17.90
2018-03-24T14:10:43.818Z,17.80
2018-03-24T14:13:11.869Z,18.00
2018-03-24T14:15:40.739Z,18.10
2018-03-24T14:18:08.781Z,18.10
2018-03-24T14:20:36.869Z,18.20
2018-03-24T14:23:06.035Z,18.10
2018-03-24T14:25:34.112Z,18.10
2018-03-24T14:28:20.130Z,17.80
2018-03-24T14:31:00.719Z,17.70
2018-03-24T14:33:31.400Z,17.30
2018-03-24T14:36:03.376Z,17.40
2018-03-24T14:38:32.662Z,16.70
2018-03-24T14:41:00.789Z,16.70
2018-03-24T14:43:28.845Z,16.60
2018-03-24T14:45:56.913Z,16.80
2018-03-24T14:48:24.975Z,17.10
2018-03-24T14:50:53.037Z,17.10
2018-03-24T14:53:21.101Z,16.90
2018-03-24T14:55:49.175Z,16.90
2018-03-24T14:58:17.234Z,17.00
2018-03-24T15:00:45.301Z,16.90
2018-03-24T15:03:14.142Z,16.70
2018-03-24T15:05:42.261Z,16.70
2018-03-24T15:08:10.812Z,16.80
2018-03-24T15:10:38.957Z,16.80
2018-03-24T15:13:07.804Z,16.70
2018-03-24T15:15:39.662Z,16.70
2018-03-24T15:18:10.583Z,16.70
2018-03-24T15:20:38.641Z,16.80
2018-03-24T15:23:06.728Z,16.90
2018-03-24T15:25:34.832Z,17.00
2018-03-24T15:28:02.900Z,17.00
2018-03-24T15:30:43.526Z,16.90
2018-03-24T15:33:23.487Z,16.60
2018-03-24T15:36:03.451Z,16.30
2018-03-24T15:38:31.528Z,16.30
2018-03-24T15:40:59.584Z,16.40
2018-03-24T15:43:27.649Z,16.40
2018-03-24T15:45:56.216Z,16.40
2018-03-24T15:48:24.292Z,16.40
2018-03-24T15:50:52.477Z,16.40
2018-03-24T15:53:20.555Z,16.40
2018-03-24T15:55:48.665Z,16.40
2018-03-24T15:58:17.504Z,16.00
2018-03-24T16:00:45.566Z,16.00
2018-03-24T16:03:13.645Z,15.80
2018-03-24T16:05:41.969Z,15.80
2018-03-24T16:08:10.818Z,15.80
2018-03-24T16:10:38.897Z,15.80
2018-03-24T16:13:08.524Z,15.70
2018-03-24T16:15:36.831Z,15.70
2018-03-24T16:18:05.706Z,15.70
2018-03-24T16:20:33.764Z,15.60
2018-03-24T16:23:01.820Z,15.50
2018-03-24T16:25:29.877Z,15.30
2018-03-24T16:27:57.961Z,15.20
2018-03-24T16:30:26.024Z,15.20
2018-03-24T16:32:54.745Z,15.20
2018-03-24T16:35:22.859Z,15.00
2018-03-24T16:37:51.695Z,14.70
2018-03-24T16:40:19.753Z,14.70
2018-03-24T16:42:48.592Z,14.50
2018-03-24T16:45:16.654Z,14.50
2018-03-24T16:47:44.741Z,14.50
2018-03-24T16:50:12.811Z,14.30
2018-03-24T16:52:41.654Z,14.00
2018-03-24T16:55:09.700Z,14.00
2018-03-24T16:57:37.780Z,13.90
2018-03-24T17:00:06.623Z,13.60
2018-03-24T17:02:34.855Z,13.60
2018-03-24T17:05:02.913Z,13.50
2018-03-24T17:07:30.976Z,13.30
2018-03-24T17:10:00.600Z,13.10
2018-03-24T17:12:29.001Z,13.00
2018-03-24T17:14:57.153Z,12.80
2018-03-24T17:17:26.857Z,12.50
2018-03-24T17:19:55.145Z,12.40
2018-03-24T17:22:24.533Z,12.40
2018-03-24T17:24:52.781Z,12.30
2018-03-24T17:27:24.458Z,12.10
2018-03-24T17:29:52.959Z,12.00
2018-03-24T17:32:24.747Z,12.00
2018-03-24T17:34:53.708Z,11.80
2018-03-24T17:37:22.568Z,11.70
2018-03-24T17:39:51.400Z,11.50
2018-03-24T17:42:21.492Z,11.50
2018-03-24T17:44:49.768Z,11.40
2018-03-24T17:47:17.818Z,11.20
2018-03-24T17:49:45.902Z,11.10
2018-03-24T17:52:13.979Z,11.00
2018-03-24T17:54:42.067Z,11.00
2018-03-24T17:57:10.150Z,10.80
2018-03-24T17:59:38.233Z,10.70
2018-03-24T18:02:06.291Z,10.60
2018-03-24T18:04:34.381Z,10.50
2018-03-24T18:07:02.438Z,10.40
2018-03-24T18:09:31.279Z,10.20
2018-03-24T18:11:59.339Z,10.10
2018-03-24T18:14:27.409Z,10.10
2018-03-24T18:16:56.241Z,9.90
2018-03-24T18:19:24.362Z,9.80
2018-03-24T18:21:52.463Z,9.80
2018-03-24T18:24:20.560Z,9.70
2018-03-24T18:26:48.656Z,9.60
2018-03-24T18:29:17.489Z,9.50
2018-03-24T18:31:45.549Z,9.50
2018-03-24T18:34:13.643Z,9.50
2018-03-24T18:36:41.689Z,9.40
2018-03-24T18:39:09.751Z,9.30
2018-03-24T18:41:37.869Z,9.30
2018-03-24T18:44:06.696Z,9.20
2018-03-24T18:46:34.768Z,9.10
2018-03-24T18:49:02.843Z,9.10
2018-03-24T18:51:31.683Z,9.00
2018-03-24T18:53:59.766Z,8.90
2018-03-24T18:56:27.818Z,8.90
2018-03-24T18:58:55.929Z,8.90
2018-03-24T19:01:23.991Z,8.80
2018-03-24T19:03:52.056Z,8.80
2018-03-24T19:06:20.897Z,8.70
2018-03-24T19:08:49.096Z,8.70
2018-03-24T19:11:17.170Z,8.70
2018-03-24T19:13:45.265Z,8.70
2018-03-24T19:16:13.340Z,8.60
2018-03-24T19:18:41.415Z,8.60
2018-03-24T19:21:09.484Z,8.60
2018-03-24T19:23:37.566Z,8.50
2018-03-24T19:26:05.629Z,8.50
2018-03-24T19:28:34.478Z,8.40
2018-03-24T19:31:02.552Z,8.40
2018-03-24T19:33:30.628Z,8.30
2018-03-24T19:35:58.729Z,8.30
2018-03-24T19:38:26.811Z,8.30
2018-03-24T19:40:54.875Z,8.30
2018-03-24T19:43:22.946Z,8.20
2018-03-24T19:45:51.017Z,8.20
2018-03-24T19:48:19.842Z,8.10
2018-03-24T19:50:47.919Z,8.00
2018-03-24T19:53:15.978Z,8.00
2018-03-24T19:55:44.036Z,8.00
2018-03-24T19:58:12.113Z,7.90
2018-03-24T20:00:40.206Z,7.90
2018-03-24T20:03:08.252Z,7.80
2018-03-24T20:05:36.325Z,7.80
2018-03-24T20:08:04.398Z,7.80
2018-03-24T20:10:32.468Z,7.70
2018-03-24T20:13:01.290Z,7.70
2018-03-24T20:15:29.388Z,7.60
2018-03-24T20:17:57.446Z,7.60
2018-03-24T20:20:25.525Z,7.60
2018-03-24T20:22:54.390Z,7.60
2018-03-24T20:25:22.461Z,7.50
2018-03-24T20:27:50.565Z,7.50
2018-03-24T20:30:18.623Z,7.50
2018-03-24T20:32:46.694Z,7.50
2018-03-24T20:35:14.767Z,7.40
2018-03-24T20:37:42.843Z,7.40
2018-03-24T20:40:10.986Z,7.40
2018-03-24T20:42:39.022Z,7.40
2018-03-24T20:45:07.185Z,7.30
2018-03-24T20:47:35.999Z,7.30
2018-03-24T20:50:04.125Z,7.20
2018-03-24T20:52:32.190Z,7.20
2018-03-24T20:55:00.280Z,7.20
2018-03-24T20:57:28.372Z,7.20
2018-03-24T20:59:56.544Z,7.20
2018-03-24T21:02:24.574Z,7.20
2018-03-24T21:04:52.665Z,7.20
2018-03-24T21:07:21.507Z,7.10
2018-03-24T21:09:50.484Z,7.10
2018-03-24T21:12:18.626Z,7.10
2018-03-24T21:14:46.692Z,7.10
2018-03-24T21:17:14.765Z,7.10
2018-03-24T21:19:42.831Z,7.10
2018-03-24T21:22:10.930Z,7.10
2018-03-24T21:24:38.972Z,7.10
2018-03-24T21:27:07.808Z,7.00
2018-03-24T21:29:35.897Z,7.00
2018-03-24T21:32:03.956Z,7.00
2018-03-24T21:34:32.017Z,7.00
2018-03-24T21:37:00.083Z,7.00
2018-03-24T21:39:28.258Z,7.00
2018-03-24T21:41:56.400Z,7.00
2018-03-24T21:44:24.456Z,6.90
2018-03-24T21:46:52.940Z,6.90
2018-03-24T21:49:21.004Z,6.90
2018-03-24T21:51:49.079Z,7.00
2018-03-24T21:54:17.196Z,6.90
2018-03-24T21:56:45.429Z,6.90
2018-03-24T21:59:13.504Z,6.90
2018-03-24T22:01:41.577Z,6.90
2018-03-24T22:04:09.687Z,6.90
2018-03-24T22:06:38.965Z,6.90
2018-03-24T22:09:07.000Z,6.90
2018-03-24T22:11:35.106Z,6.90
2018-03-24T22:14:03.194Z,6.90
2018-03-24T22:16:31.279Z,6.90
2018-03-24T22:18:59.421Z,6.90
2018-03-24T22:21:27.478Z,7.00
2018-03-24T22:23:55.627Z,6.90
2018-03-24T22:26:23.699Z,7.00
2018-03-24T22:28:51.765Z,6.90
2018-03-24T22:31:19.846Z,6.90
2018-03-24T22:33:47.916Z,6.90
2018-03-24T22:36:16.033Z,6.90
2018-03-24T22:38:44.112Z,7.00
2018-03-24T22:41:12.357Z,6.90
2018-03-24T22:43:40.405Z,6.90
2018-03-24T22:46:08.851Z,7.00
2018-03-24T22:48:36.968Z,7.00
2018-03-24T22:51:05.041Z,7.00
2018-03-24T22:53:33.092Z,7.00
2018-03-24T22:56:01.161Z,7.00
2018-03-24T22:58:29.212Z,6.90
2018-03-24T23:00:57.280Z,6.90
2018-03-24T23:03:25.359Z,6.80
2018-03-24T23:05:53.713Z,6.90
2018-03-24T23:08:21.784Z,6.90
2018-03-24T23:10:49.852Z,6.60
2018-03-24T23:13:18.694Z,6.50
2018-03-24T23:15:46.752Z,6.50
2018-03-24T23:18:14.899Z,6.30
2018-03-24T23:20:42.978Z,6.40
2018-03-24T23:23:11.042Z,6.40
2018-03-24T23:25:39.112Z,6.40
2018-03-24T23:28:07.173Z,6.40
2018-03-24T23:30:35.274Z,6.40
2018-03-24T23:33:03.346Z,6.40
2018-03-24T23:35:31.497Z,6.30
2018-03-24T23:37:59.551Z,6.20
2018-03-24T23:40:27.621Z,6.30
2018-03-24T23:42:55.680Z,6.20
2018-03-24T23:45:23.796Z,6.10
2018-03-24T23:47:51.842Z,6.00
2018-03-24T23:50:19.884Z,5.80
2018-03-24T23:52:48.068Z,5.90
2018-03-24T23:55:16.145Z,5.80
2018-03-24T23:57:44.773Z,5.80
